sensor_id;sensor_type;location;lat;lon;timestamp;P1;durP1;ratioP1;P2;durP2;ratioP2
65315;SDS011;51920;53.952;10.292;2022-11-15T00:01:48;54.90;;;20.55;;
65315;SDS011;51920;53.952;10.292;2022-11-15T00:04:32;47.50;;;18.17;;
65315;SDS011;51920;53.952;10.292;2022-11-15T00:07:16;53.17;;;19.92;;
65315;SDS011;51920;53.952;10.292;2022-11-15T00:10:00;50.67;;;19.83;;
65315;SDS011;51920;53.952;10.292;2022-11-15T00:12:44;50.25;;;18.85;;
65315;SDS011;51920;53.952;10.292;2022-11-15T00:15:28;51.63;;;19.50;;
65315;SDS011;51920;53.952;10.292;2022-11-15T00:18:12;46.17;;;17.87;;
65315;SDS011;51920;53.952;10.292;2022-11-15T00:21:03;45.55;;;18.40;;
65315;SDS011;51920;53.952;10.292;2022-11-15T00:23:49;46.00;;;18.67;;
65315;SDS011;51920;53.952;10.292;2022-11-15T00:26:33;47.88;;;18.63;;
65315;SDS011;51920;53.952;10.292;2022-11-15T00:29:17;50.78;;;18.45;;
65315;SDS011;51920;53.952;10.292;2022-11-15T00:32:01;50.87;;;19.33;;
65315;SDS011;51920;53.952;10.292;2022-11-15T00:34:45;46.03;;;18.58;;
65315;SDS011;51920;53.952;10.292;2022-11-15T00:37:29;47.15;;;19.42;;
65315;SDS011;51920;53.952;10.292;2022-11-15T00:40:14;47.83;;;18.77;;
65315;SDS011;51920;53.952;10.292;2022-11-15T00:42:58;51.05;;;19.33;;
65315;SDS011;51920;53.952;10.292;2022-11-15T00:45:42;48.57;;;18.70;;
65315;SDS011;51920;53.952;10.292;2022-11-15T00:48:26;48.33;;;18.70;;
65315;SDS011;51920;53.952;10.292;2022-11-15T00:51:10;46.83;;;18.63;;
65315;SDS011;51920;53.952;10.292;2022-11-15T00:53:54;49.42;;;18.80;;
65315;SDS011;51920;53.952;10.292;2022-11-15T00:56:38;43.47;;;18.42;;
65315;SDS011;51920;53.952;10.292;2022-11-15T00:59:22;44.47;;;17.73;;
65315;SDS011;51920;53.952;10.292;2022-11-15T01:02:06;47.85;;;18.52;;
65315;SDS011;51920;53.952;10.292;2022-11-15T01:04:50;46.40;;;18.35;;
65315;SDS011;51920;53.952;10.292;2022-11-15T01:07:35;45.80;;;19.30;;
65315;SDS011;51920;53.952;10.292;2022-11-15T01:10:19;47.45;;;19.42;;
65315;SDS011;51920;53.952;10.292;2022-11-15T01:13:03;45.33;;;17.93;;
65315;SDS011;51920;53.952;10.292;2022-11-15T01:15:47;42.47;;;18.05;;
65315;SDS011;51920;53.952;10.292;2022-11-15T01:18:31;47.28;;;18.70;;
65315;SDS011;51920;53.952;10.292;2022-11-15T01:21:16;43.42;;;17.30;;
65315;SDS011;51920;53.952;10.292;2022-11-15T01:24:01;46.58;;;19.08;;
65315;SDS011;51920;53.952;10.292;2022-11-15T01:26:45;40.67;;;17.03;;
65315;SDS011;51920;53.952;10.292;2022-11-15T01:29:29;45.08;;;18.45;;
65315;SDS011;51920;53.952;10.292;2022-11-15T01:32:13;45.65;;;18.52;;
65315;SDS011;51920;53.952;10.292;2022-11-15T01:34:57;43.42;;;17.48;;
65315;SDS011;51920;53.952;10.292;2022-11-15T01:37:41;47.95;;;18.42;;
65315;SDS011;51920;53.952;10.292;2022-11-15T01:40:25;42.87;;;17.13;;
65315;SDS011;51920;53.952;10.292;2022-11-15T01:43:26;47.28;;;18.38;;
65315;SDS011;51920;53.952;10.292;2022-11-15T01:46:24;43.75;;;17.38;;
65315;SDS011;51920;53.952;10.292;2022-11-15T01:49:15;39.58;;;16.27;;
65315;SDS011;51920;53.952;10.292;2022-11-15T01:52:03;48.08;;;18.58;;
65315;SDS011;51920;53.952;10.292;2022-11-15T01:55:35;41.67;;;17.07;;
65315;SDS011;51920;53.952;10.292;2022-11-15T01:58:03;44.20;;;17.52;;
65315;SDS011;51920;53.952;10.292;2022-11-15T02:00:49;43.72;;;17.08;;
65315;SDS011;51920;53.952;10.292;2022-11-15T02:06:59;46.10;;;18.48;;
65315;SDS011;51920;53.952;10.292;2022-11-15T02:09:45;44.60;;;17.47;;
65315;SDS011;51920;53.952;10.292;2022-11-15T02:12:30;41.95;;;17.33;;
65315;SDS011;51920;53.952;10.292;2022-11-15T02:15:15;44.53;;;17.83;;
65315;SDS011;51920;53.952;10.292;2022-11-15T02:32:48;39.35;;;16.70;;
65315;SDS011;51920;53.952;10.292;2022-11-15T02:41:39;41.58;;;16.38;;
65315;SDS011;51920;53.952;10.292;2022-11-15T02:44:31;42.90;;;17.90;;
65315;SDS011;51920;53.952;10.292;2022-11-15T02:47:18;42.92;;;16.50;;
65315;SDS011;51920;53.952;10.292;2022-11-15T02:50:06;42.85;;;17.20;;
65315;SDS011;51920;53.952;10.292;2022-11-15T02:52:53;42.10;;;16.37;;
65315;SDS011;51920;53.952;10.292;2022-11-15T02:55:41;43.55;;;17.00;;
65315;SDS011;51920;53.952;10.292;2022-11-15T03:04:19;37.97;;;14.85;;
65315;SDS011;51920;53.952;10.292;2022-11-15T03:07:17;40.43;;;15.90;;
65315;SDS011;51920;53.952;10.292;2022-11-15T03:10:24;40.10;;;16.40;;
65315;SDS011;51920;53.952;10.292;2022-11-15T03:16:09;38.00;;;16.27;;
65315;SDS011;51920;53.952;10.292;2022-11-15T03:19:23;43.33;;;16.90;;
65315;SDS011;51920;53.952;10.292;2022-11-15T03:22:11;36.90;;;15.53;;
65315;SDS011;51920;53.952;10.292;2022-11-15T03:24:59;40.25;;;16.45;;
65315;SDS011;51920;53.952;10.292;2022-11-15T03:27:48;42.65;;;16.95;;
65315;SDS011;51920;53.952;10.292;2022-11-15T03:30:35;37.45;;;15.98;;
65315;SDS011;51920;53.952;10.292;2022-11-15T03:33:21;42.25;;;17.50;;
65315;SDS011;51920;53.952;10.292;2022-11-15T03:36:05;40.00;;;15.93;;
65315;SDS011;51920;53.952;10.292;2022-11-15T03:38:51;44.78;;;17.52;;
65315;SDS011;51920;53.952;10.292;2022-11-15T03:44:40;43.47;;;17.63;;
65315;SDS011;51920;53.952;10.292;2022-11-15T03:47:34;45.35;;;17.40;;
65315;SDS011;51920;53.952;10.292;2022-11-15T03:50:24;44.27;;;17.17;;
65315;SDS011;51920;53.952;10.292;2022-11-15T03:53:09;42.28;;;17.27;;
65315;SDS011;51920;53.952;10.292;2022-11-15T03:55:54;42.33;;;17.58;;
65315;SDS011;51920;53.952;10.292;2022-11-15T03:58:38;43.58;;;16.85;;
65315;SDS011;51920;53.952;10.292;2022-11-15T04:01:22;38.50;;;17.35;;
65315;SDS011;51920;53.952;10.292;2022-11-15T04:04:05;40.03;;;17.27;;
65315;SDS011;51920;53.952;10.292;2022-11-15T04:06:49;41.50;;;17.00;;
65315;SDS011;51920;53.952;10.292;2022-11-15T04:09:33;42.22;;;17.05;;
65315;SDS011;51920;53.952;10.292;2022-11-15T04:12:42;39.55;;;16.40;;
65315;SDS011;51920;53.952;10.292;2022-11-15T04:15:27;41.55;;;17.02;;
65315;SDS011;51920;53.952;10.292;2022-11-15T04:18:12;40.10;;;15.87;;
65315;SDS011;51920;53.952;10.292;2022-11-15T04:20:56;38.58;;;15.80;;
65315;SDS011;51920;53.952;10.292;2022-11-15T04:23:59;43.70;;;17.02;;
65315;SDS011;51920;53.952;10.292;2022-11-15T04:26:55;38.97;;;16.13;;
65315;SDS011;51920;53.952;10.292;2022-11-15T04:29:39;47.70;;;18.10;;
65315;SDS011;51920;53.952;10.292;2022-11-15T04:32:23;51.03;;;20.07;;
65315;SDS011;51920;53.952;10.292;2022-11-15T04:35:07;54.42;;;21.88;;
65315;SDS011;51920;53.952;10.292;2022-11-15T04:37:52;59.65;;;22.95;;
65315;SDS011;51920;53.952;10.292;2022-11-15T04:40:36;56.15;;;22.08;;
65315;SDS011;51920;53.952;10.292;2022-11-15T04:43:20;55.22;;;21.58;;
65315;SDS011;51920;53.952;10.292;2022-11-15T04:46:05;53.23;;;20.80;;
65315;SDS011;51920;53.952;10.292;2022-11-15T04:48:49;47.85;;;19.45;;
65315;SDS011;51920;53.952;10.292;2022-11-15T04:51:34;44.22;;;18.92;;
65315;SDS011;51920;53.952;10.292;2022-11-15T04:54:18;45.60;;;18.58;;
65315;SDS011;51920;53.952;10.292;2022-11-15T04:57:02;44.83;;;17.92;;
65315;SDS011;51920;53.952;10.292;2022-11-15T04:59:46;45.43;;;17.83;;
65315;SDS011;51920;53.952;10.292;2022-11-15T05:02:30;41.85;;;16.30;;
65315;SDS011;51920;53.952;10.292;2022-11-15T05:05:34;43.88;;;17.52;;
65315;SDS011;51920;53.952;10.292;2022-11-15T05:08:18;42.63;;;17.15;;
65315;SDS011;51920;53.952;10.292;2022-11-15T05:11:02;36.70;;;16.42;;
65315;SDS011;51920;53.952;10.292;2022-11-15T05:13:46;37.13;;;15.77;;
65315;SDS011;51920;53.952;10.292;2022-11-15T05:16:31;37.05;;;15.60;;
65315;SDS011;51920;53.952;10.292;2022-11-15T05:19:15;36.65;;;15.55;;
65315;SDS011;51920;53.952;10.292;2022-11-15T05:21:59;39.70;;;15.80;;
65315;SDS011;51920;53.952;10.292;2022-11-15T05:24:42;41.20;;;16.83;;
65315;SDS011;51920;53.952;10.292;2022-11-15T05:27:26;40.13;;;16.40;;
65315;SDS011;51920;53.952;10.292;2022-11-15T05:30:10;36.78;;;15.30;;
65315;SDS011;51920;53.952;10.292;2022-11-15T05:32:54;42.67;;;16.80;;
65315;SDS011;51920;53.952;10.292;2022-11-15T05:35:39;35.53;;;14.90;;
65315;SDS011;51920;53.952;10.292;2022-11-15T05:38:27;38.40;;;15.18;;
65315;SDS011;51920;53.952;10.292;2022-11-15T05:41:12;36.07;;;14.40;;
65315;SDS011;51920;53.952;10.292;2022-11-15T05:43:56;33.95;;;14.98;;
65315;SDS011;51920;53.952;10.292;2022-11-15T05:46:41;34.47;;;15.32;;
65315;SDS011;51920;53.952;10.292;2022-11-15T05:49:27;36.60;;;14.95;;
65315;SDS011;51920;53.952;10.292;2022-11-15T05:52:15;33.17;;;14.27;;
65315;SDS011;51920;53.952;10.292;2022-11-15T05:55:02;33.80;;;14.50;;
65315;SDS011;51920;53.952;10.292;2022-11-15T05:57:48;34.78;;;14.90;;
65315;SDS011;51920;53.952;10.292;2022-11-15T06:00:32;37.15;;;15.52;;
65315;SDS011;51920;53.952;10.292;2022-11-15T06:03:15;37.58;;;15.55;;
65315;SDS011;51920;53.952;10.292;2022-11-15T06:05:59;40.33;;;16.40;;
65315;SDS011;51920;53.952;10.292;2022-11-15T06:08:43;36.80;;;14.90;;
65315;SDS011;51920;53.952;10.292;2022-11-15T06:11:27;36.55;;;15.25;;
65315;SDS011;51920;53.952;10.292;2022-11-15T06:14:11;37.65;;;15.45;;
65315;SDS011;51920;53.952;10.292;2022-11-15T06:16:55;38.50;;;15.98;;
65315;SDS011;51920;53.952;10.292;2022-11-15T06:19:39;37.38;;;15.55;;
65315;SDS011;51920;53.952;10.292;2022-11-15T06:22:23;35.00;;;15.00;;
65315;SDS011;51920;53.952;10.292;2022-11-15T06:25:07;36.13;;;15.25;;
65315;SDS011;51920;53.952;10.292;2022-11-15T06:27:52;33.63;;;14.63;;
65315;SDS011;51920;53.952;10.292;2022-11-15T06:30:39;37.88;;;15.00;;
65315;SDS011;51920;53.952;10.292;2022-11-15T06:33:23;37.90;;;15.80;;
65315;SDS011;51920;53.952;10.292;2022-11-15T06:36:08;35.83;;;14.80;;
65315;SDS011;51920;53.952;10.292;2022-11-15T06:38:54;35.17;;;14.90;;
65315;SDS011;51920;53.952;10.292;2022-11-15T06:41:38;33.65;;;14.68;;
65315;SDS011;51920;53.952;10.292;2022-11-15T06:44:22;40.92;;;16.52;;
65315;SDS011;51920;53.952;10.292;2022-11-15T06:47:06;35.60;;;14.75;;
65315;SDS011;51920;53.952;10.292;2022-11-15T06:49:49;36.70;;;15.67;;
65315;SDS011;51920;53.952;10.292;2022-11-15T06:52:33;35.67;;;15.18;;
65315;SDS011;51920;53.952;10.292;2022-11-15T06:55:17;35.25;;;14.65;;
65315;SDS011;51920;53.952;10.292;2022-11-15T06:58:01;32.33;;;14.38;;
65315;SDS011;51920;53.952;10.292;2022-11-15T07:00:45;36.58;;;15.38;;
65315;SDS011;51920;53.952;10.292;2022-11-15T07:03:29;36.33;;;15.10;;
65315;SDS011;51920;53.952;10.292;2022-11-15T07:06:13;37.47;;;15.32;;
65315;SDS011;51920;53.952;10.292;2022-11-15T07:08:57;32.83;;;15.13;;
65315;SDS011;51920;53.952;10.292;2022-11-15T07:11:41;35.55;;;14.52;;
65315;SDS011;51920;53.952;10.292;2022-11-15T07:14:25;32.33;;;14.63;;
65315;SDS011;51920;53.952;10.292;2022-11-15T07:17:09;36.33;;;13.67;;
65315;SDS011;51920;53.952;10.292;2022-11-15T07:19:53;33.30;;;14.48;;
65315;SDS011;51920;53.952;10.292;2022-11-15T07:22:37;30.80;;;13.88;;
65315;SDS011;51920;53.952;10.292;2022-11-15T07:25:20;31.25;;;14.10;;
65315;SDS011;51920;53.952;10.292;2022-11-15T07:28:04;31.98;;;14.07;;
65315;SDS011;51920;53.952;10.292;2022-11-15T07:30:48;32.17;;;14.17;;
65315;SDS011;51920;53.952;10.292;2022-11-15T07:33:32;34.97;;;14.60;;
65315;SDS011;51920;53.952;10.292;2022-11-15T07:36:16;33.28;;;14.43;;
65315;SDS011;51920;53.952;10.292;2022-11-15T07:39:00;29.73;;;14.23;;
65315;SDS011;51920;53.952;10.292;2022-11-15T07:41:44;33.25;;;14.15;;
65315;SDS011;51920;53.952;10.292;2022-11-15T07:44:30;29.40;;;13.03;;
65315;SDS011;51920;53.952;10.292;2022-11-15T07:47:13;30.02;;;13.35;;
65315;SDS011;51920;53.952;10.292;2022-11-15T07:49:57;32.25;;;14.90;;
65315;SDS011;51920;53.952;10.292;2022-11-15T07:52:41;31.40;;;13.57;;
65315;SDS011;51920;53.952;10.292;2022-11-15T07:55:26;30.60;;;13.50;;
65315;SDS011;51920;53.952;10.292;2022-11-15T07:58:12;31.23;;;13.27;;
65315;SDS011;51920;53.952;10.292;2022-11-15T08:00:56;31.10;;;13.73;;
65315;SDS011;51920;53.952;10.292;2022-11-15T08:03:40;31.90;;;13.82;;
65315;SDS011;51920;53.952;10.292;2022-11-15T08:06:24;27.80;;;13.05;;
65315;SDS011;51920;53.952;10.292;2022-11-15T08:09:08;31.17;;;13.63;;
65315;SDS011;51920;53.952;10.292;2022-11-15T08:11:52;30.33;;;12.97;;
65315;SDS011;51920;53.952;10.292;2022-11-15T08:14:36;27.00;;;13.02;;
65315;SDS011;51920;53.952;10.292;2022-11-15T08:17:20;31.38;;;13.45;;
65315;SDS011;51920;53.952;10.292;2022-11-15T08:20:05;28.88;;;12.68;;
65315;SDS011;51920;53.952;10.292;2022-11-15T08:22:49;30.45;;;13.27;;
65315;SDS011;51920;53.952;10.292;2022-11-15T08:25:33;29.07;;;12.97;;
65315;SDS011;51920;53.952;10.292;2022-11-15T08:28:18;30.58;;;13.30;;
65315;SDS011;51920;53.952;10.292;2022-11-15T08:31:03;30.80;;;13.00;;
65315;SDS011;51920;53.952;10.292;2022-11-15T08:33:47;30.25;;;13.07;;
65315;SDS011;51920;53.952;10.292;2022-11-15T08:36:31;27.40;;;12.75;;
65315;SDS011;51920;53.952;10.292;2022-11-15T08:39:15;28.27;;;12.83;;
65315;SDS011;51920;53.952;10.292;2022-11-15T08:41:59;28.52;;;12.85;;
65315;SDS011;51920;53.952;10.292;2022-11-15T08:44:43;27.10;;;13.23;;
65315;SDS011;51920;53.952;10.292;2022-11-15T08:47:27;26.45;;;12.50;;
65315;SDS011;51920;53.952;10.292;2022-11-15T08:50:11;26.83;;;12.48;;
65315;SDS011;51920;53.952;10.292;2022-11-15T08:52:55;29.73;;;13.20;;
65315;SDS011;51920;53.952;10.292;2022-11-15T08:55:39;27.85;;;12.65;;
65315;SDS011;51920;53.952;10.292;2022-11-15T08:58:24;29.48;;;13.07;;
65315;SDS011;51920;53.952;10.292;2022-11-15T09:01:14;26.88;;;12.80;;
65315;SDS011;51920;53.952;10.292;2022-11-15T09:04:01;24.98;;;12.10;;
65315;SDS011;51920;53.952;10.292;2022-11-15T09:06:47;26.33;;;12.20;;
65315;SDS011;51920;53.952;10.292;2022-11-15T09:09:31;25.27;;;12.63;;
65315;SDS011;51920;53.952;10.292;2022-11-15T09:12:15;26.95;;;13.05;;
65315;SDS011;51920;53.952;10.292;2022-11-15T09:14:58;24.77;;;11.80;;
65315;SDS011;51920;53.952;10.292;2022-11-15T09:17:43;25.45;;;12.38;;
65315;SDS011;51920;53.952;10.292;2022-11-15T09:20:26;24.43;;;11.83;;
65315;SDS011;51920;53.952;10.292;2022-11-15T09:23:11;24.77;;;11.60;;
65315;SDS011;51920;53.952;10.292;2022-11-15T09:26:00;25.90;;;12.05;;
65315;SDS011;51920;53.952;10.292;2022-11-15T09:28:46;27.48;;;12.43;;
65315;SDS011;51920;53.952;10.292;2022-11-15T09:31:30;24.40;;;12.20;;
65315;SDS011;51920;53.952;10.292;2022-11-15T09:34:14;24.83;;;11.90;;
65315;SDS011;51920;53.952;10.292;2022-11-15T09:36:58;24.50;;;11.88;;
65315;SDS011;51920;53.952;10.292;2022-11-15T09:39:42;27.60;;;12.93;;
65315;SDS011;51920;53.952;10.292;2022-11-15T09:45:46;24.05;;;11.55;;
65315;SDS011;51920;53.952;10.292;2022-11-15T09:49:06;23.67;;;10.97;;
65315;SDS011;51920;53.952;10.292;2022-11-15T09:52:03;26.25;;;11.88;;
65315;SDS011;51920;53.952;10.292;2022-11-15T09:56:58;25.60;;;12.03;;
65315;SDS011;51920;53.952;10.292;2022-11-15T10:04:58;24.67;;;11.95;;
65315;SDS011;51920;53.952;10.292;2022-11-15T10:07:26;24.65;;;12.43;;
65315;SDS011;51920;53.952;10.292;2022-11-15T10:12:33;24.15;;;12.15;;
65315;SDS011;51920;53.952;10.292;2022-11-15T10:15:02;25.53;;;12.37;;
65315;SDS011;51920;53.952;10.292;2022-11-15T10:17:35;25.40;;;12.03;;
65315;SDS011;51920;53.952;10.292;2022-11-15T10:20:25;23.20;;;11.20;;
65315;SDS011;51920;53.952;10.292;2022-11-15T10:23:02;24.10;;;11.77;;
65315;SDS011;51920;53.952;10.292;2022-11-15T10:25:34;22.20;;;11.43;;
65315;SDS011;51920;53.952;10.292;2022-11-15T10:28:01;24.40;;;12.15;;
65315;SDS011;51920;53.952;10.292;2022-11-15T10:30:34;25.30;;;12.10;;
65315;SDS011;51920;53.952;10.292;2022-11-15T10:46:31;25.23;;;12.35;;
65315;SDS011;51920;53.952;10.292;2022-11-15T10:51:41;21.80;;;10.75;;
65315;SDS011;51920;53.952;10.292;2022-11-15T10:54:10;22.45;;;10.90;;
65315;SDS011;51920;53.952;10.292;2022-11-15T10:56:38;21.65;;;10.63;;
65315;SDS011;51920;53.952;10.292;2022-11-15T10:59:12;20.17;;;10.73;;
65315;SDS011;51920;53.952;10.292;2022-11-15T11:01:46;20.63;;;10.73;;
65315;SDS011;51920;53.952;10.292;2022-11-15T11:04:12;21.95;;;10.65;;
65315;SDS011;51920;53.952;10.292;2022-11-15T11:09:30;21.65;;;11.00;;
65315;SDS011;51920;53.952;10.292;2022-11-15T11:12:00;20.87;;;10.53;;
65315;SDS011;51920;53.952;10.292;2022-11-15T11:14:34;21.08;;;10.75;;
65315;SDS011;51920;53.952;10.292;2022-11-15T11:19:42;21.75;;;10.23;;
65315;SDS011;51920;53.952;10.292;2022-11-15T11:22:16;22.77;;;11.48;;
65315;SDS011;51920;53.952;10.292;2022-11-15T11:24:49;22.40;;;10.50;;
65315;SDS011;51920;53.952;10.292;2022-11-15T11:30:14;20.73;;;11.18;;
65315;SDS011;51920;53.952;10.292;2022-11-15T11:35:22;21.35;;;11.52;;
65315;SDS011;51920;53.952;10.292;2022-11-15T11:37:56;19.33;;;10.20;;
65315;SDS011;51920;53.952;10.292;2022-11-15T11:40:37;23.27;;;12.63;;
65315;SDS011;51920;53.952;10.292;2022-11-15T11:43:21;26.38;;;14.35;;
65315;SDS011;51920;53.952;10.292;2022-11-15T11:49:01;21.80;;;11.80;;
65315;SDS011;51920;53.952;10.292;2022-11-15T11:51:43;21.20;;;11.27;;
65315;SDS011;51920;53.952;10.292;2022-11-15T11:54:20;20.77;;;10.60;;
65315;SDS011;51920;53.952;10.292;2022-11-15T11:56:52;20.65;;;10.57;;
65315;SDS011;51920;53.952;10.292;2022-11-15T11:59:21;20.40;;;10.50;;
65315;SDS011;51920;53.952;10.292;2022-11-15T12:01:47;24.17;;;12.52;;
65315;SDS011;51920;53.952;10.292;2022-11-15T12:06:42;22.15;;;11.27;;
65315;SDS011;51920;53.952;10.292;2022-11-15T12:09:24;19.05;;;10.43;;
65315;SDS011;51920;53.952;10.292;2022-11-15T12:12:09;21.42;;;11.07;;
65315;SDS011;51920;53.952;10.292;2022-11-15T12:14:44;19.23;;;10.53;;
65315;SDS011;51920;53.952;10.292;2022-11-15T12:17:12;20.27;;;10.45;;
65315;SDS011;51920;53.952;10.292;2022-11-15T12:19:38;17.52;;;9.70;;
65315;SDS011;51920;53.952;10.292;2022-11-15T12:22:24;21.17;;;10.15;;
65315;SDS011;51920;53.952;10.292;2022-11-15T12:25:15;18.90;;;10.48;;
65315;SDS011;51920;53.952;10.292;2022-11-15T12:27:46;17.20;;;9.50;;
65315;SDS011;51920;53.952;10.292;2022-11-15T12:30:19;19.88;;;10.18;;
65315;SDS011;51920;53.952;10.292;2022-11-15T12:32:58;19.27;;;10.63;;
65315;SDS011;51920;53.952;10.292;2022-11-15T12:35:35;20.17;;;10.25;;
65315;SDS011;51920;53.952;10.292;2022-11-15T12:38:04;20.52;;;10.55;;
65315;SDS011;51920;53.952;10.292;2022-11-15T12:45:44;19.27;;;10.23;;
65315;SDS011;51920;53.952;10.292;2022-11-15T12:56:08;20.23;;;10.65;;
65315;SDS011;51920;53.952;10.292;2022-11-15T12:58:43;18.25;;;9.95;;
65315;SDS011;51920;53.952;10.292;2022-11-15T13:04:14;19.85;;;10.70;;
65315;SDS011;51920;53.952;10.292;2022-11-15T13:06:56;22.73;;;11.30;;
65315;SDS011;51920;53.952;10.292;2022-11-15T13:12:02;20.05;;;10.05;;
65315;SDS011;51920;53.952;10.292;2022-11-15T13:14:50;19.35;;;10.45;;
65315;SDS011;51920;53.952;10.292;2022-11-15T13:20:09;19.87;;;11.07;;
65315;SDS011;51920;53.952;10.292;2022-11-15T13:30:50;21.65;;;10.93;;
65315;SDS011;51920;53.952;10.292;2022-11-15T13:33:20;21.77;;;10.93;;
65315;SDS011;51920;53.952;10.292;2022-11-15T13:35:50;23.35;;;11.77;;
65315;SDS011;51920;53.952;10.292;2022-11-15T13:40:56;20.33;;;10.68;;
65315;SDS011;51920;53.952;10.292;2022-11-15T13:46:15;18.80;;;10.57;;
65315;SDS011;51920;53.952;10.292;2022-11-15T13:48:43;18.98;;;10.43;;
65315;SDS011;51920;53.952;10.292;2022-11-15T13:51:21;18.52;;;10.43;;
65315;SDS011;51920;53.952;10.292;2022-11-15T13:53:54;21.05;;;10.48;;
65315;SDS011;51920;53.952;10.292;2022-11-15T13:56:23;22.67;;;11.18;;
65315;SDS011;51920;53.952;10.292;2022-11-15T13:58:51;21.00;;;10.67;;
65315;SDS011;51920;53.952;10.292;2022-11-15T14:01:18;22.25;;;10.90;;
65315;SDS011;51920;53.952;10.292;2022-11-15T14:03:56;18.02;;;10.65;;
65315;SDS011;51920;53.952;10.292;2022-11-15T14:06:24;18.40;;;10.65;;
65315;SDS011;51920;53.952;10.292;2022-11-15T14:11:52;19.30;;;10.73;;
65315;SDS011;51920;53.952;10.292;2022-11-15T14:14:19;19.05;;;10.57;;
65315;SDS011;51920;53.952;10.292;2022-11-15T14:16:51;20.15;;;10.15;;
65315;SDS011;51920;53.952;10.292;2022-11-15T14:24:41;17.17;;;9.53;;
65315;SDS011;51920;53.952;10.292;2022-11-15T14:27:19;19.00;;;10.18;;
65315;SDS011;51920;53.952;10.292;2022-11-15T14:29:47;20.42;;;10.45;;
65315;SDS011;51920;53.952;10.292;2022-11-15T14:32:14;17.92;;;10.00;;
65315;SDS011;51920;53.952;10.292;2022-11-15T14:34:41;17.52;;;9.82;;
65315;SDS011;51920;53.952;10.292;2022-11-15T14:40:03;20.00;;;10.60;;
65315;SDS011;51920;53.952;10.292;2022-11-15T14:42:30;18.73;;;10.32;;
65315;SDS011;51920;53.952;10.292;2022-11-15T14:44:55;21.30;;;10.30;;
65315;SDS011;51920;53.952;10.292;2022-11-15T14:47:21;19.87;;;10.03;;
65315;SDS011;51920;53.952;10.292;2022-11-15T14:49:46;18.50;;;10.05;;
65315;SDS011;51920;53.952;10.292;2022-11-15T14:52:28;18.30;;;10.10;;
65315;SDS011;51920;53.952;10.292;2022-11-15T14:54:58;18.30;;;9.77;;
65315;SDS011;51920;53.952;10.292;2022-11-15T14:57:24;20.90;;;10.80;;
65315;SDS011;51920;53.952;10.292;2022-11-15T14:59:50;18.40;;;9.97;;
65315;SDS011;51920;53.952;10.292;2022-11-15T15:02:16;19.05;;;10.23;;
65315;SDS011;51920;53.952;10.292;2022-11-15T15:04:48;16.20;;;9.00;;
65315;SDS011;51920;53.952;10.292;2022-11-15T15:07:14;17.15;;;9.20;;
65315;SDS011;51920;53.952;10.292;2022-11-15T15:09:40;19.30;;;9.80;;
65315;SDS011;51920;53.952;10.292;2022-11-15T15:12:16;17.10;;;9.70;;
65315;SDS011;51920;53.952;10.292;2022-11-15T15:14:43;19.43;;;10.13;;
65315;SDS011;51920;53.952;10.292;2022-11-15T15:17:09;18.27;;;10.15;;
65315;SDS011;51920;53.952;10.292;2022-11-15T15:19:35;22.67;;;11.60;;
65315;SDS011;51920;53.952;10.292;2022-11-15T15:22:00;21.90;;;11.00;;
65315;SDS011;51920;53.952;10.292;2022-11-15T15:24:25;24.50;;;12.50;;
65315;SDS011;51920;53.952;10.292;2022-11-15T15:26:51;19.97;;;10.60;;
65315;SDS011;51920;53.952;10.292;2022-11-15T15:29:16;18.97;;;10.20;;
65315;SDS011;51920;53.952;10.292;2022-11-15T15:31:42;20.95;;;11.05;;
65315;SDS011;51920;53.952;10.292;2022-11-15T15:34:07;18.60;;;10.20;;
65315;SDS011;51920;53.952;10.292;2022-11-15T15:36:32;18.27;;;9.97;;
65315;SDS011;51920;53.952;10.292;2022-11-15T15:38:58;20.17;;;11.20;;
65315;SDS011;51920;53.952;10.292;2022-11-15T15:41:23;19.70;;;11.20;;
65315;SDS011;51920;53.952;10.292;2022-11-15T15:43:48;19.17;;;10.97;;
65315;SDS011;51920;53.952;10.292;2022-11-15T15:46:15;20.50;;;11.10;;
65315;SDS011;51920;53.952;10.292;2022-11-15T15:48:42;18.67;;;10.60;;
65315;SDS011;51920;53.952;10.292;2022-11-15T15:51:08;20.42;;;10.77;;
65315;SDS011;51920;53.952;10.292;2022-11-15T15:53:34;19.88;;;11.13;;
65315;SDS011;51920;53.952;10.292;2022-11-15T15:55:59;19.67;;;11.07;;
65315;SDS011;51920;53.952;10.292;2022-11-15T15:58:25;20.80;;;11.07;;
65315;SDS011;51920;53.952;10.292;2022-11-15T16:00:50;22.27;;;10.88;;
65315;SDS011;51920;53.952;10.292;2022-11-15T16:03:16;18.27;;;10.80;;
65315;SDS011;51920;53.952;10.292;2022-11-15T16:05:42;18.85;;;10.50;;
65315;SDS011;51920;53.952;10.292;2022-11-15T16:08:23;20.40;;;11.37;;
65315;SDS011;51920;53.952;10.292;2022-11-15T16:10:51;18.58;;;10.82;;
65315;SDS011;51920;53.952;10.292;2022-11-15T16:13:17;21.70;;;12.20;;
65315;SDS011;51920;53.952;10.292;2022-11-15T16:15:42;23.08;;;12.20;;
65315;SDS011;51920;53.952;10.292;2022-11-15T16:18:08;20.40;;;11.97;;
65315;SDS011;51920;53.952;10.292;2022-11-15T16:20:42;22.15;;;11.75;;
65315;SDS011;51920;53.952;10.292;2022-11-15T16:23:10;20.05;;;11.00;;
65315;SDS011;51920;53.952;10.292;2022-11-15T16:25:42;20.00;;;11.57;;
65315;SDS011;51920;53.952;10.292;2022-11-15T16:28:16;20.70;;;10.55;;
65315;SDS011;51920;53.952;10.292;2022-11-15T16:30:43;18.33;;;10.67;;
65315;SDS011;51920;53.952;10.292;2022-11-15T16:33:08;22.67;;;10.95;;
65315;SDS011;51920;53.952;10.292;2022-11-15T16:35:34;18.60;;;10.83;;
65315;SDS011;51920;53.952;10.292;2022-11-15T16:37:59;19.60;;;11.07;;
65315;SDS011;51920;53.952;10.292;2022-11-15T16:40:29;20.10;;;10.73;;
65315;SDS011;51920;53.952;10.292;2022-11-15T16:43:00;19.67;;;10.93;;
65315;SDS011;51920;53.952;10.292;2022-11-15T16:45:27;24.60;;;13.10;;
65315;SDS011;51920;53.952;10.292;2022-11-15T16:47:56;19.25;;;10.98;;
65315;SDS011;51920;53.952;10.292;2022-11-15T16:50:26;21.90;;;10.90;;
65315;SDS011;51920;53.952;10.292;2022-11-15T16:52:54;22.77;;;11.30;;
65315;SDS011;51920;53.952;10.292;2022-11-15T16:55:21;21.73;;;11.50;;
65315;SDS011;51920;53.952;10.292;2022-11-15T16:57:48;20.70;;;11.00;;
65315;SDS011;51920;53.952;10.292;2022-11-15T17:00:14;20.67;;;11.40;;
65315;SDS011;51920;53.952;10.292;2022-11-15T17:02:50;22.52;;;11.48;;
65315;SDS011;51920;53.952;10.292;2022-11-15T17:05:18;20.50;;;11.55;;
65315;SDS011;51920;53.952;10.292;2022-11-15T17:07:50;21.23;;;11.25;;
65315;SDS011;51920;53.952;10.292;2022-11-15T17:10:19;23.48;;;12.02;;
65315;SDS011;51920;53.952;10.292;2022-11-15T17:12:46;23.13;;;12.33;;
65315;SDS011;51920;53.952;10.292;2022-11-15T17:15:12;23.63;;;12.10;;
65315;SDS011;51920;53.952;10.292;2022-11-15T17:17:38;22.87;;;12.23;;
65315;SDS011;51920;53.952;10.292;2022-11-15T17:20:05;22.83;;;11.68;;
65315;SDS011;51920;53.952;10.292;2022-11-15T17:22:36;21.70;;;11.35;;
65315;SDS011;51920;53.952;10.292;2022-11-15T17:25:02;22.30;;;11.27;;
65315;SDS011;51920;53.952;10.292;2022-11-15T17:27:28;21.67;;;12.13;;